sensor_id;sensor_type;location;lat;lon;timestamp;temperature;humidity
21189;DHT22;39071;52.420;20.896;2022-11-12T14:31:42;10.40;99.90
21189;DHT22;39071;52.420;20.896;2022-11-12T14:34:30;10.40;99.90
21189;DHT22;39071;52.420;20.896;2022-11-12T14:36:58;10.50;99.90
21189;DHT22;39071;52.420;20.896;2022-11-12T14:39:26;10.60;99.90
21189;DHT22;39071;52.420;20.896;2022-11-12T14:41:55;10.60;99.90
21189;DHT22;39071;52.420;20.896;2022-11-12T14:44:26;10.70;99.90
21189;DHT22;39071;52.420;20.896;2022-11-12T14:46:54;10.70;99.90
21189;DHT22;39071;52.420;20.896;2022-11-12T14:49:38;10.80;99.90
21189;DHT22;39071;52.420;20.896;2022-11-12T14:52:31;10.90;99.90
21189;DHT22;39071;52.420;20.896;2022-11-12T14:55:08;11.00;99.90
21189;DHT22;39071;52.420;20.896;2022-11-12T14:57:35;11.00;99.90
21189;DHT22;39071;52.420;20.896;2022-11-12T15:00:17;11.00;99.90
21189;DHT22;39071;52.420;20.896;2022-11-12T15:02:43;11.10;99.90
21189;DHT22;39071;52.420;20.896;2022-11-12T15:05:16;11.10;99.90
21189;DHT22;39071;52.420;20.896;2022-11-12T15:07:55;11.10;99.90
21189;DHT22;39071;52.420;20.896;2022-11-12T15:10:41;11.10;99.90
21189;DHT22;39071;52.420;20.896;2022-11-12T15:13:15;11.20;99.90
21189;DHT22;39071;52.420;20.896;2022-11-12T15:15:55;11.20;99.90
21189;DHT22;39071;52.420;20.896;2022-11-12T15:18:25;11.20;99.90
21189;DHT22;39071;52.420;20.896;2022-11-12T15:21:23;11.20;99.90
21189;DHT22;39071;52.420;20.896;2022-11-12T15:23:52;11.20;99.90
21189;DHT22;39071;52.420;20.896;2022-11-12T15:26:39;11.20;99.90
21189;DHT22;39071;52.420;20.896;2022-11-12T15:34:31;11.20;99.90
21189;DHT22;39071;52.420;20.896;2022-11-12T15:37:07;11.20;99.90
21189;DHT22;39071;52.420;20.896;2022-11-12T15:39:40;11.30;99.90
21189;DHT22;39071;52.420;20.896;2022-11-12T15:42:45;11.30;99.90
21189;DHT22;39071;52.420;20.896;2022-11-12T15:45:20;11.30;99.90
21189;DHT22;39071;52.420;20.896;2022-11-12T15:47:46;11.30;99.90
21189;DHT22;39071;52.420;20.896;2022-11-12T15:52:38;11.30;99.90
21189;DHT22;39071;52.420;20.896;2022-11-12T15:55:05;11.20;99.90
21189;DHT22;39071;52.420;20.896;2022-11-12T15:57:32;11.20;99.90
21189;DHT22;39071;52.420;20.896;2022-11-12T16:00:04;11.20;99.90
21189;DHT22;39071;52.420;20.896;2022-11-12T16:02:30;11.20;99.90
21189;DHT22;39071;52.420;20.896;2022-11-12T16:04:57;11.20;99.90
21189;DHT22;39071;52.420;20.896;2022-11-12T16:07:22;11.30;99.90
21189;DHT22;39071;52.420;20.896;2022-11-12T16:09:48;11.30;99.90
21189;DHT22;39071;52.420;20.896;2022-11-12T16:12:14;11.30;99.90
21189;DHT22;39071;52.420;20.896;2022-11-12T16:14:40;11.40;99.90
21189;DHT22;39071;52.420;20.896;2022-11-12T16:17:17;11.40;99.90
21189;DHT22;39071;52.420;20.896;2022-11-12T16:19:42;11.40;99.90
21189;DHT22;39071;52.420;20.896;2022-11-12T16:22:08;11.40;99.90
21189;DHT22;39071;52.420;20.896;2022-11-12T16:24:38;11.40;99.90
21189;DHT22;39071;52.420;20.896;2022-11-12T16:27:04;11.40;99.90
21189;DHT22;39071;52.420;20.896;2022-11-12T16:29:33;11.40;99.90
21189;DHT22;39071;52.420;20.896;2022-11-12T16:31:58;11.40;99.90
21189;DHT22;39071;52.420;20.896;2022-11-12T16:34:24;11.40;99.90
21189;DHT22;39071;52.420;20.896;2022-11-12T16:36:50;11.40;99.90
21189;DHT22;39071;52.420;20.896;2022-11-12T16:39:16;11.50;99.90
21189;DHT22;39071;52.420;20.896;2022-11-12T16:41:41;11.50;99.90
21189;DHT22;39071;52.420;20.896;2022-11-12T16:44:07;11.50;99.90
21189;DHT22;39071;52.420;20.896;2022-11-12T16:46:37;11.50;99.90
21189;DHT22;39071;52.420;20.896;2022-11-12T16:49:15;11.50;99.90
21189;DHT22;39071;52.420;20.896;2022-11-12T16:51:41;11.50;99.90
21189;DHT22;39071;52.420;20.896;2022-11-12T16:54:07;11.50;99.90
21189;DHT22;39071;52.420;20.896;2022-11-12T16:56:33;11.50;99.90
21189;DHT22;39071;52.420;20.896;2022-11-12T16:59:00;11.50;99.90
21189;DHT22;39071;52.420;20.896;2022-11-12T17:01:28;11.50;99.90
21189;DHT22;39071;52.420;20.896;2022-11-12T17:03:56;11.50;99.90
21189;DHT22;39071;52.420;20.896;2022-11-12T17:06:24;11.50;99.90
21189;DHT22;39071;52.420;20.896;2022-11-12T17:08:55;11.50;99.90
21189;DHT22;39071;52.420;20.896;2022-11-12T17:11:21;11.50;99.90
21189;DHT22;39071;52.420;20.896;2022-11-12T17:13:48;11.50;99.90
21189;DHT22;39071;52.420;20.896;2022-11-12T17:16:14;11.50;99.90
21189;DHT22;39071;52.420;20.896;2022-11-12T17:18:40;11.50;99.90
21189;DHT22;39071;52.420;20.896;2022-11-12T17:21:14;11.50;99.90
21189;DHT22;39071;52.420;20.896;2022-11-12T17:23:40;11.50;99.90
21189;DHT22;39071;52.420;20.896;2022-11-12T17:26:13;11.50;99.90
21189;DHT22;39071;52.420;20.896;2022-11-12T17:28:39;11.50;99.90
21189;DHT22;39071;52.420;20.896;2022-11-12T17:31:16;11.50;99.90
21189;DHT22;39071;52.420;20.896;2022-11-12T17:33:46;11.50;99.90
21189;DHT22;39071;52.420;20.896;2022-11-12T17:36:14;11.50;99.90
21189;DHT22;39071;52.420;20.896;2022-11-12T17:38:42;11.50;99.90
21189;DHT22;39071;52.420;20.896;2022-11-12T17:41:09;11.50;99.90
21189;DHT22;39071;52.420;20.896;2022-11-12T17:43:35;11.50;99.90
21189;DHT22;39071;52.420;20.896;2022-11-12T17:46:02;11.50;99.90
21189;DHT22;39071;52.420;20.896;2022-11-12T17:48:30;11.50;99.90
21189;DHT22;39071;52.420;20.896;2022-11-12T17:51:22;11.50;99.90
21189;DHT22;39071;52.420;20.896;2022-11-12T17:53:48;11.50;99.90
21189;DHT22;39071;52.420;20.896;2022-11-12T17:56:16;11.50;99.90
21189;DHT22;39071;52.420;20.896;2022-11-12T17:58:43;11.50;99.90
21189;DHT22;39071;52.420;20.896;2022-11-12T18:01:22;11.50;99.90
21189;DHT22;39071;52.420;20.896;2022-11-12T18:03:50;11.50;99.90
21189;DHT22;39071;52.420;20.896;2022-11-12T18:06:19;11.50;99.90
21189;DHT22;39071;52.420;20.896;2022-11-12T18:08:46;11.50;99.90
21189;DHT22;39071;52.420;20.896;2022-11-12T18:11:14;11.50;99.90
21189;DHT22;39071;52.420;20.896;2022-11-12T18:13:40;11.50;99.90
21189;DHT22;39071;52.420;20.896;2022-11-12T18:16:13;11.50;99.90
21189;DHT22;39071;52.420;20.896;2022-11-12T18:18:39;11.50;99.90
21189;DHT22;39071;52.420;20.896;2022-11-12T18:21:05;11.50;99.90
21189;DHT22;39071;52.420;20.896;2022-11-12T18:23:31;11.50;99.90
21189;DHT22;39071;52.420;20.896;2022-11-12T18:25:56;11.50;99.90
21189;DHT22;39071;52.420;20.896;2022-11-12T18:28:24;11.50;99.90
21189;DHT22;39071;52.420;20.896;2022-11-12T18:30:50;11.50;99.90
21189;DHT22;39071;52.420;20.896;2022-11-12T18:33:15;11.50;99.90
21189;DHT22;39071;52.420;20.896;2022-11-12T18:35:41;11.50;99.90
21189;DHT22;39071;52.420;20.896;2022-11-12T18:38:07;11.50;99.90
21189;DHT22;39071;52.420;20.896;2022-11-12T18:40:32;11.50;99.90
21189;DHT22;39071;52.420;20.896;2022-11-12T18:42:58;11.50;99.90
21189;DHT22;39071;52.420;20.896;2022-11-12T18:45:24;11.50;99.90
21189;DHT22;39071;52.420;20.896;2022-11-12T18:47:49;11.50;99.90
21189;DHT22;39071;52.420;20.896;2022-11-12T18:50:15;11.50;99.90
21189;DHT22;39071;52.420;20.896;2022-11-12T18:52:42;11.50;99.90
21189;DHT22;39071;52.420;20.896;2022-11-12T18:55:08;11.50;99.90
21189;DHT22;39071;52.420;20.896;2022-11-12T18:57:34;11.50;99.90
21189;DHT22;39071;52.420;20.896;2022-11-12T18:59:59;11.50;99.90
21189;DHT22;39071;52.420;20.896;2022-11-12T19:02:25;11.50;99.90
21189;DHT22;39071;52.420;20.896;2022-11-12T19:04:51;11.50;99.90
21189;DHT22;39071;52.420;20.896;2022-11-12T19:07:16;11.50;99.90
21189;DHT22;39071;52.420;20.896;2022-11-12T19:09:42;11.50;99.90
21189;DHT22;39071;52.420;20.896;2022-11-12T19:12:08;11.50;99.90
21189;DHT22;39071;52.420;20.896;2022-11-12T19:14:33;11.50;99.90
21189;DHT22;39071;52.420;20.896;2022-11-12T19:16:59;11.40;99.90
21189;DHT22;39071;52.420;20.896;2022-11-12T19:19:25;11.40;99.90
21189;DHT22;39071;52.420;20.896;2022-11-12T19:21:50;11.40;99.90
21189;DHT22;39071;52.420;20.896;2022-11-12T19:24:16;11.40;99.90
21189;DHT22;39071;52.420;20.896;2022-11-12T19:26:42;11.40;99.90
21189;DHT22;39071;52.420;20.896;2022-11-12T19:29:08;11.40;99.90
21189;DHT22;39071;52.420;20.896;2022-11-12T19:31:34;11.40;99.90
21189;DHT22;39071;52.420;20.896;2022-11-12T19:33:59;11.40;99.90
21189;DHT22;39071;52.420;20.896;2022-11-12T19:36:26;11.50;99.90
21189;DHT22;39071;52.420;20.896;2022-11-12T19:38:56;11.40;99.90
21189;DHT22;39071;52.420;20.896;2022-11-12T19:41:23;11.40;99.90
21189;DHT22;39071;52.420;20.896;2022-11-12T19:43:49;11.40;99.90
21189;DHT22;39071;52.420;20.896;2022-11-12T19:46:16;11.40;99.90
21189;DHT22;39071;52.420;20.896;2022-11-12T19:48:42;11.40;99.90
21189;DHT22;39071;52.420;20.896;2022-11-12T19:51:09;11.40;99.90
21189;DHT22;39071;52.420;20.896;2022-11-12T19:53:37;11.40;99.90
21189;DHT22;39071;52.420;20.896;2022-11-12T19:56:05;11.40;99.90
21189;DHT22;39071;52.420;20.896;2022-11-12T19:58:31;11.40;99.90
21189;DHT22;39071;52.420;20.896;2022-11-12T20:01:05;11.30;99.90
21189;DHT22;39071;52.420;20.896;2022-11-12T20:03:31;11.30;99.90
21189;DHT22;39071;52.420;20.896;2022-11-12T20:06:02;11.30;99.90
21189;DHT22;39071;52.420;20.896;2022-11-12T20:08:28;11.30;99.90
21189;DHT22;39071;52.420;20.896;2022-11-12T20:10:54;11.40;99.90
21189;DHT22;39071;52.420;20.896;2022-11-12T20:13:20;11.30;99.90
21189;DHT22;39071;52.420;20.896;2022-11-12T20:15:45;11.30;99.90
21189;DHT22;39071;52.420;20.896;2022-11-12T20:18:11;11.30;99.90
21189;DHT22;39071;52.420;20.896;2022-11-12T20:20:37;11.30;99.90
21189;DHT22;39071;52.420;20.896;2022-11-12T20:23:02;11.20;99.90
21189;DHT22;39071;52.420;20.896;2022-11-12T20:25:28;11.30;99.90
21189;DHT22;39071;52.420;20.896;2022-11-12T20:27:54;11.30;99.90
21189;DHT22;39071;52.420;20.896;2022-11-12T20:30:20;11.30;99.90
21189;DHT22;39071;52.420;20.896;2022-11-12T20:32:45;11.30;99.90
21189;DHT22;39071;52.420;20.896;2022-11-12T20:35:11;11.30;99.90
21189;DHT22;39071;52.420;20.896;2022-11-12T20:37:37;11.30;99.90
21189;DHT22;39071;52.420;20.896;2022-11-12T20:40:03;11.30;99.90
21189;DHT22;39071;52.420;20.896;2022-11-12T20:42:28;11.30;99.90
21189;DHT22;39071;52.420;20.896;2022-11-12T20:44:54;11.30;99.90
21189;DHT22;39071;52.420;20.896;2022-11-12T20:47:20;11.30;99.90
21189;DHT22;39071;52.420;20.896;2022-11-12T20:49:45;11.30;99.90
21189;DHT22;39071;52.420;20.896;2022-11-12T20:52:11;11.30;99.90
21189;DHT22;39071;52.420;20.896;2022-11-12T20:54:37;11.20;99.90
21189;DHT22;39071;52.420;20.896;2022-11-12T20:57:02;11.30;99.90
21189;DHT22;39071;52.420;20.896;2022-11-12T20:59:28;11.30;99.90
21189;DHT22;39071;52.420;20.896;2022-11-12T21:01:54;11.30;99.90
21189;DHT22;39071;52.420;20.896;2022-11-12T21:04:23;11.30;99.90
21189;DHT22;39071;52.420;20.896;2022-11-12T21:06:49;11.30;99.90
21189;DHT22;39071;52.420;20.896;2022-11-12T21:09:15;11.30;99.90
21189;DHT22;39071;52.420;20.896;2022-11-12T21:11:40;11.30;99.90
21189;DHT22;39071;52.420;20.896;2022-11-12T21:14:06;11.30;99.90
21189;DHT22;39071;52.420;20.896;2022-11-12T21:16:32;11.30;99.90
21189;DHT22;39071;52.420;20.896;2022-11-12T21:19:01;11.30;99.90
21189;DHT22;39071;52.420;20.896;2022-11-12T21:21:26;11.30;99.90
21189;DHT22;39071;52.420;20.896;2022-11-12T21:23:54;11.30;99.90
21189;DHT22;39071;52.420;20.896;2022-11-12T21:26:20;11.30;99.90
21189;DHT22;39071;52.420;20.896;2022-11-12T21:28:49;11.30;99.90
21189;DHT22;39071;52.420;20.896;2022-11-12T21:31:23;11.30;99.90
21189;DHT22;39071;52.420;20.896;2022-11-12T21:33:50;11.30;99.90
21189;DHT22;39071;52.420;20.896;2022-11-12T21:36:17;11.30;99.90
21189;DHT22;39071;52.420;20.896;2022-11-12T21:38:44;11.30;99.90
21189;DHT22;39071;52.420;20.896;2022-11-12T21:41:16;11.30;99.90
21189;DHT22;39071;52.420;20.896;2022-11-12T21:43:43;11.30;99.90
21189;DHT22;39071;52.420;20.896;2022-11-12T21:46:24;11.30;99.90
21189;DHT22;39071;52.420;20.896;2022-11-12T21:48:52;11.30;99.90
21189;DHT22;39071;52.420;20.896;2022-11-12T21:51:19;11.20;99.90
21189;DHT22;39071;52.420;20.896;2022-11-12T21:53:45;11.20;99.90
21189;DHT22;39071;52.420;20.896;2022-11-12T21:56:14;11.20;99.90
21189;DHT22;39071;52.420;20.896;2022-11-12T21:58:40;11.20;99.90
21189;DHT22;39071;52.420;20.896;2022-11-12T22:01:10;11.20;99.90
21189;DHT22;39071;52.420;20.896;2022-11-12T22:03:37;11.20;99.90
21189;DHT22;39071;52.420;20.896;2022-11-12T22:06:03;11.20;99.90
21189;DHT22;39071;52.420;20.896;2022-11-12T22:08:30;11.10;99.90
21189;DHT22;39071;52.420;20.896;2022-11-12T22:11:12;11.10;99.90
21189;DHT22;39071;52.420;20.896;2022-11-12T22:13:39;11.10;99.90
21189;DHT22;39071;52.420;20.896;2022-11-12T22:16:10;11.10;99.90
21189;DHT22;39071;52.420;20.896;2022-11-12T22:18:36;11.20;99.90
21189;DHT22;39071;52.420;20.896;2022-11-12T22:21:05;11.20;99.90
21189;DHT22;39071;52.420;20.896;2022-11-12T22:23:32;11.20;99.90
21189;DHT22;39071;52.420;20.896;2022-11-12T22:26:01;11.20;99.90
21189;DHT22;39071;52.420;20.896;2022-11-12T22:28:28;11.20;99.90
21189;DHT22;39071;52.420;20.896;2022-11-12T22:30:53;11.20;99.90
21189;DHT22;39071;52.420;20.896;2022-11-12T22:33:19;11.10;99.90
21189;DHT22;39071;52.420;20.896;2022-11-12T22:35:45;11.10;99.90
21189;DHT22;39071;52.420;20.896;2022-11-12T22:38:11;11.20;99.90
21189;DHT22;39071;52.420;20.896;2022-11-12T22:40:37;11.20;99.90
21189;DHT22;39071;52.420;20.896;2022-11-12T22:43:02;11.20;99.90
21189;DHT22;39071;52.420;20.896;2022-11-12T22:45:28;11.20;99.90
21189;DHT22;39071;52.420;20.896;2022-11-12T22:47:54;11.10;99.90
21189;DHT22;39071;52.420;20.896;2022-11-12T22:50:19;11.10;99.90
21189;DHT22;39071;52.420;20.896;2022-11-12T22:52:45;11.10;99.90
21189;DHT22;39071;52.420;20.896;2022-11-12T22:55:11;11.10;99.90
21189;DHT22;39071;52.420;20.896;2022-11-12T22:57:37;11.10;99.90
21189;DHT22;39071;52.420;20.896;2022-11-12T23:00:07;11.10;99.90
21189;DHT22;39071;52.420;20.896;2022-11-12T23:02:34;11.20;99.90
21189;DHT22;39071;52.420;20.896;2022-11-12T23:05:00;11.10;99.90
21189;DHT22;39071;52.420;20.896;2022-11-12T23:07:25;11.10;99.90
21189;DHT22;39071;52.420;20.896;2022-11-12T23:09:51;11.10;99.90
21189;DHT22;39071;52.420;20.896;2022-11-12T23:12:17;11.10;99.90
21189;DHT22;39071;52.420;20.896;2022-11-12T23:14:42;11.10;99.90
21189;DHT22;39071;52.420;20.896;2022-11-12T23:17:08;11.10;99.90
21189;DHT22;39071;52.420;20.896;2022-11-12T23:19:33;11.00;99.90
21189;DHT22;39071;52.420;20.896;2022-11-12T23:21:59;11.00;99.90
21189;DHT22;39071;52.420;20.896;2022-11-12T23:24:25;11.00;99.90
21189;DHT22;39071;52.420;20.896;2022-11-12T23:26:50;11.00;99.90
21189;DHT22;39071;52.420;20.896;2022-11-12T23:29:16;11.00;99.90
21189;DHT22;39071;52.420;20.896;2022-11-12T23:31:42;11.00;99.90
21189;DHT22;39071;52.420;20.896;2022-11-12T23:34:08;11.00;99.90
21189;DHT22;39071;52.420;20.896;2022-11-12T23:36:34;11.00;99.90
21189;DHT22;39071;52.420;20.896;2022-11-12T23:39:00;11.00;99.90
21189;DHT22;39071;52.420;20.896;2022-11-12T23:41:26;11.00;99.90
21189;DHT22;39071;52.420;20.896;2022-11-12T23:43:53;10.90;99.90
21189;DHT22;39071;52.420;20.896;2022-11-12T23:46:19;11.00;99.90
21189;DHT22;39071;52.420;20.896;2022-11-12T23:48:45;10.90;99.90
21189;DHT22;39071;52.420;20.896;2022-11-12T23:51:17;10.90;99.90
21189;DHT22;39071;52.420;20.896;2022-11-12T23:53:43;10.90;99.90
21189;DHT22;39071;52.420;20.896;2022-11-12T23:56:11;10.90;99.90
21189;DHT22;39071;52.420;20.896;2022-11-12T23:58:38;10.90;99.90
